createdAt,value
2019-01-13T00:00:11.716Z,6.60
2019-01-13T00:02:39.507Z,4.70
2019-01-13T00:05:08.799Z,6.63
2019-01-13T00:07:37.215Z,6.00
2019-01-13T00:10:07.096Z,10.10
2019-01-13T00:12:35.746Z,6.00
2019-01-13T00:15:06.583Z,9.27
2019-01-13T00:17:34.997Z,7.87
2019-01-13T00:20:05.311Z,4.87
2019-01-13T00:22:33.719Z,3.40
2019-01-13T00:25:02.258Z,3.87
2019-01-13T00:27:30.675Z,4.17
2019-01-13T00:29:59.203Z,3.30
2019-01-13T00:32:27.623Z,5.03
2019-01-13T00:34:56.072Z,5.30
2019-01-13T00:37:24.522Z,6.50
2019-01-13T00:39:52.967Z,6.23
2019-01-13T00:42:21.419Z,3.93
2019-01-13T00:44:49.847Z,4.87
2019-01-13T00:47:18.283Z,6.07
2019-01-13T00:49:46.724Z,3.40
2019-01-13T00:52:15.144Z,7.73
2019-01-13T00:54:43.595Z,6.30
2019-01-13T00:57:12.006Z,6.20
2019-01-13T00:59:40.448Z,6.33
2019-01-13T01:02:08.968Z,6.40
2019-01-13T01:04:37.381Z,4.20
2019-01-13T01:07:05.939Z,4.73
2019-01-13T01:09:34.390Z,3.60
2019-01-13T01:12:02.807Z,6.47
2019-01-13T01:14:31.243Z,6.40
2019-01-13T01:16:59.726Z,4.33
2019-01-13T01:19:28.173Z,8.07
2019-01-13T01:21:56.595Z,7.80
2019-01-13T01:24:25.019Z,6.20
2019-01-13T01:26:53.464Z,6.67
2019-01-13T01:29:21.886Z,11.30
2019-01-13T01:31:50.332Z,7.00
2019-01-13T01:34:18.747Z,3.17
2019-01-13T01:36:47.202Z,6.20
2019-01-13T01:39:15.602Z,6.63
2019-01-13T01:41:44.047Z,7.20
2019-01-13T01:44:12.487Z,7.50
2019-01-13T01:46:40.927Z,6.23
2019-01-13T01:49:09.340Z,8.07
2019-01-13T01:51:37.788Z,6.37
2019-01-13T01:54:06.227Z,11.30
2019-01-13T01:56:34.649Z,6.27
2019-01-13T01:59:03.091Z,11.60
2019-01-13T02:01:31.536Z,10.70
2019-01-13T02:03:59.952Z,6.30
2019-01-13T02:06:28.399Z,9.10
2019-01-13T02:08:56.814Z,6.07
2019-01-13T02:11:25.256Z,6.20
2019-01-13T02:13:53.783Z,7.17
2019-01-13T02:16:22.291Z,11.43
2019-01-13T02:18:50.703Z,8.20
2019-01-13T02:21:19.156Z,10.00
2019-01-13T02:23:47.572Z,7.50
2019-01-13T02:26:15.988Z,8.83
2019-01-13T02:28:44.432Z,3.93
2019-01-13T02:31:12.844Z,4.90
2019-01-13T02:33:41.473Z,9.13
2019-01-13T02:36:09.888Z,5.17
2019-01-13T02:38:38.302Z,6.07
2019-01-13T02:41:06.755Z,8.10
2019-01-13T02:43:35.174Z,7.47
2019-01-13T02:46:03.587Z,6.97
2019-01-13T02:48:32.035Z,13.10
2019-01-13T02:51:00.474Z,9.80
2019-01-13T02:53:28.900Z,10.77
2019-01-13T02:55:57.339Z,17.03
2019-01-13T02:58:25.797Z,14.07
2019-01-13T03:00:57.196Z,15.87
2019-01-13T03:03:24.382Z,8.97
2019-01-13T03:05:52.807Z,10.97
2019-01-13T03:08:21.986Z,6.77
2019-01-13T03:10:50.710Z,8.90
2019-01-13T03:13:19.111Z,7.20
2019-01-13T03:15:47.557Z,8.87
2019-01-13T03:18:15.967Z,4.63
2019-01-13T03:20:44.415Z,5.17
2019-01-13T03:23:12.857Z,7.60
2019-01-13T03:25:41.271Z,6.60
2019-01-13T03:28:09.716Z,7.47
2019-01-13T03:30:38.156Z,9.77
2019-01-13T03:33:06.592Z,7.50
2019-01-13T03:35:35.135Z,8.30
2019-01-13T03:38:04.314Z,9.00
2019-01-13T03:40:32.761Z,6.77
2019-01-13T03:43:01.199Z,7.73
2019-01-13T03:45:31.146Z,7.47
2019-01-13T03:47:59.647Z,10.57
2019-01-13T03:50:28.150Z,7.13
2019-01-13T03:52:56.554Z,4.60
2019-01-13T03:55:25.067Z,8.47
2019-01-13T03:57:53.743Z,8.50
2019-01-13T04:00:23.903Z,6.97
2019-01-13T04:02:52.492Z,4.77
2019-01-13T04:05:21.057Z,13.43
2019-01-13T04:07:49.574Z,11.10
2019-01-13T04:10:18.332Z,11.57
2019-01-13T04:12:46.921Z,14.90
2019-01-13T04:15:18.494Z,6.97
2019-01-13T04:17:46.998Z,8.20
2019-01-13T04:20:15.443Z,12.03
2019-01-13T04:22:43.872Z,8.00
2019-01-13T04:25:12.378Z,9.17
2019-01-13T04:27:40.799Z,5.63
2019-01-13T04:30:11.947Z,7.70
2019-01-13T04:32:40.461Z,9.73
2019-01-13T04:35:09.055Z,9.20
2019-01-13T04:37:37.482Z,9.00
2019-01-13T04:40:08.438Z,10.53
2019-01-13T04:42:36.867Z,10.90
2019-01-13T04:45:07.851Z,8.27
2019-01-13T04:47:36.398Z,11.13
2019-01-13T04:50:10.650Z,14.43
2019-01-13T04:52:39.083Z,7.00
2019-01-13T04:55:07.749Z,9.07
2019-01-13T04:57:36.165Z,7.60
2019-01-13T05:00:07.691Z,11.30
2019-01-13T05:02:36.118Z,8.30
2019-01-13T05:05:06.290Z,6.93
2019-01-13T05:07:34.739Z,9.60
2019-01-13T05:10:05.277Z,12.50
2019-01-13T05:12:33.723Z,7.90
2019-01-13T05:15:02.139Z,10.40
2019-01-13T05:17:30.668Z,12.93
2019-01-13T05:19:59.087Z,8.47
2019-01-13T05:22:27.527Z,9.07
2019-01-13T05:24:55.969Z,9.10
2019-01-13T05:27:24.401Z,8.87
2019-01-13T05:29:52.841Z,10.30
2019-01-13T05:32:21.261Z,7.97
2019-01-13T05:34:49.765Z,10.60
2019-01-13T05:37:18.207Z,6.57
2019-01-13T05:39:46.648Z,10.20
2019-01-13T05:42:15.087Z,7.40
2019-01-13T05:44:43.528Z,15.73
2019-01-13T05:47:14.424Z,7.10
2019-01-13T05:49:42.893Z,7.93
2019-01-13T05:52:11.306Z,8.60
2019-01-13T05:54:39.734Z,9.47
2019-01-13T05:57:08.179Z,8.60
2019-01-13T05:59:36.587Z,6.80
2019-01-13T06:02:05.032Z,7.43
2019-01-13T06:04:33.442Z,7.10
2019-01-13T06:07:01.887Z,8.33
2019-01-13T06:09:30.377Z,8.60
2019-01-13T06:11:58.791Z,6.33
2019-01-13T06:14:27.340Z,6.03
2019-01-13T06:16:55.751Z,5.97
2019-01-13T06:19:24.230Z,11.00
2019-01-13T06:21:52.679Z,8.77
2019-01-13T06:24:21.127Z,7.77
2019-01-13T06:26:49.568Z,7.50
2019-01-13T06:29:18.010Z,11.43
2019-01-13T06:31:46.432Z,8.77
2019-01-13T06:34:14.875Z,8.90
2019-01-13T06:36:43.295Z,7.20
2019-01-13T06:39:11.735Z,10.07
2019-01-13T06:41:40.150Z,4.40
2019-01-13T06:44:08.654Z,6.03
2019-01-13T06:46:37.083Z,4.30
2019-01-13T06:49:05.758Z,2.70
2019-01-13T06:51:34.170Z,4.27
2019-01-13T06:54:02.615Z,4.07
2019-01-13T06:56:31.035Z,2.90
2019-01-13T06:58:59.483Z,4.87
2019-01-13T07:01:27.917Z,5.73
2019-01-13T07:03:56.327Z,3.60
2019-01-13T07:06:24.791Z,2.33
2019-01-13T07:09:02.048Z,4.30
2019-01-13T07:11:30.475Z,4.00
2019-01-13T07:13:58.884Z,3.60
2019-01-13T07:16:27.297Z,2.40
2019-01-13T07:18:56.120Z,5.27
2019-01-13T07:21:24.624Z,4.10
2019-01-13T07:23:53.052Z,4.37
2019-01-13T07:26:21.463Z,3.30
2019-01-13T07:28:49.903Z,4.20
2019-01-13T07:31:18.310Z,5.37
2019-01-13T07:33:46.767Z,4.40
2019-01-13T07:36:15.182Z,4.70
2019-01-13T07:38:43.627Z,3.70
2019-01-13T07:41:12.043Z,2.47
2019-01-13T07:43:40.491Z,5.73
2019-01-13T07:46:08.899Z,3.57
2019-01-13T07:48:37.339Z,4.40
2019-01-13T07:51:05.823Z,3.80
2019-01-13T07:53:34.262Z,4.27
2019-01-13T07:56:02.750Z,2.67
2019-01-13T07:58:31.198Z,3.80
2019-01-13T08:00:59.619Z,2.97
2019-01-13T08:03:28.052Z,3.50
2019-01-13T08:05:56.572Z,5.37
2019-01-13T08:08:25.083Z,3.50
2019-01-13T08:10:53.502Z,4.07
2019-01-13T08:13:21.949Z,2.60
2019-01-13T08:15:50.378Z,3.13
2019-01-13T08:18:18.802Z,2.80
2019-01-13T08:20:47.235Z,6.40
2019-01-13T08:23:15.650Z,4.60
2019-01-13T08:25:44.090Z,5.47
2019-01-13T08:28:12.514Z,4.40
2019-01-13T08:30:40.961Z,3.17
2019-01-13T08:33:09.467Z,3.17
2019-01-13T08:35:37.920Z,3.00
2019-01-13T08:38:06.340Z,5.70
2019-01-13T08:40:34.862Z,3.13
2019-01-13T08:43:03.307Z,5.80
2019-01-13T08:45:31.746Z,3.50
2019-01-13T08:48:00.166Z,3.83
2019-01-13T08:50:28.751Z,3.40
2019-01-13T08:52:57.171Z,4.37
2019-01-13T08:55:25.870Z,3.07
2019-01-13T08:57:54.367Z,4.33
2019-01-13T09:00:27.522Z,3.17
2019-01-13T09:02:56.035Z,3.93
2019-01-13T09:05:24.800Z,3.57
2019-01-13T09:07:53.424Z,4.50
2019-01-13T09:10:21.971Z,4.13
2019-01-13T09:12:56.666Z,5.40
2019-01-13T09:15:22.768Z,3.13
2019-01-13T09:17:51.288Z,3.93
2019-01-13T09:20:22.050Z,3.40
2019-01-13T09:22:50.541Z,3.23
2019-01-13T09:25:19.106Z,3.30
2019-01-13T09:27:47.618Z,3.00
2019-01-13T09:30:18.484Z,4.30
2019-01-13T09:32:47.120Z,3.30
2019-01-13T09:35:15.598Z,3.50
2019-01-13T09:37:44.056Z,1.80
2019-01-13T09:40:21.308Z,3.13
2019-01-13T09:42:49.840Z,3.20
2019-01-13T09:45:18.354Z,3.17
2019-01-13T09:47:46.867Z,4.40
2019-01-13T09:50:17.542Z,4.23
2019-01-13T09:52:46.047Z,4.00
2019-01-13T09:55:16.814Z,5.30
2019-01-13T09:57:45.386Z,5.90
2019-01-13T10:00:31.583Z,5.93
2019-01-13T10:03:00.366Z,4.77
2019-01-13T10:05:28.879Z,6.17
2019-01-13T10:07:57.387Z,4.90
2019-01-13T10:10:25.800Z,2.70
2019-01-13T10:12:54.310Z,3.33
2019-01-13T10:15:24.668Z,3.60
2019-01-13T10:17:53.189Z,4.60
2019-01-13T10:20:21.659Z,2.40
2019-01-13T10:22:50.147Z,4.23
2019-01-13T10:25:18.760Z,2.00
2019-01-13T10:27:47.175Z,2.23
2019-01-13T10:30:24.034Z,2.93
2019-01-13T10:32:54.545Z,3.93
2019-01-13T10:35:23.219Z,3.20
2019-01-13T10:37:52.214Z,5.30
2019-01-13T10:40:23.084Z,2.80
2019-01-13T10:42:51.522Z,4.37
2019-01-13T10:45:19.975Z,4.60
2019-01-13T10:47:48.463Z,3.70
2019-01-13T10:50:22.147Z,4.20
2019-01-13T10:52:51.023Z,4.77
2019-01-13T10:55:19.578Z,3.90
2019-01-13T10:57:48.222Z,5.00
2019-01-13T11:00:19.753Z,2.63
2019-01-13T11:02:48.620Z,1.90
2019-01-13T11:05:17.759Z,2.23
2019-01-13T11:07:46.518Z,4.07
2019-01-13T11:10:16.770Z,3.17
2019-01-13T11:12:45.875Z,2.33
2019-01-13T11:15:21.746Z,3.70
2019-01-13T11:17:48.810Z,4.00
2019-01-13T11:20:22.510Z,4.47
2019-01-13T11:22:52.622Z,4.37
2019-01-13T11:25:21.386Z,3.03
2019-01-13T11:27:49.959Z,4.87
2019-01-13T11:30:21.463Z,4.40
2019-01-13T11:32:49.908Z,4.50
2019-01-13T11:35:19.283Z,4.67
2019-01-13T11:37:50.060Z,3.90
2019-01-13T11:40:22.186Z,3.10
2019-01-13T11:42:50.953Z,3.73
2019-01-13T11:45:19.842Z,4.50
2019-01-13T11:47:48.410Z,4.70
2019-01-13T11:50:21.895Z,4.90
2019-01-13T11:52:51.010Z,3.73
2019-01-13T11:55:19.967Z,4.20
2019-01-13T11:57:48.562Z,3.80
2019-01-13T12:00:28.765Z,2.90
2019-01-13T12:02:57.529Z,4.37
2019-01-13T12:05:27.808Z,4.20
2019-01-13T12:07:56.432Z,3.37
2019-01-13T12:10:25.696Z,4.50
2019-01-13T12:12:54.336Z,3.43
2019-01-13T12:15:23.140Z,5.07
2019-01-13T12:17:51.578Z,4.73
2019-01-13T12:20:23.079Z,4.00
2019-01-13T12:22:51.768Z,3.47
2019-01-13T12:25:21.921Z,3.83
2019-01-13T12:27:50.982Z,2.90
2019-01-13T12:30:24.763Z,3.40
2019-01-13T12:32:53.302Z,4.37
2019-01-13T12:35:22.280Z,3.83
2019-01-13T12:37:50.884Z,5.30
2019-01-13T12:40:21.743Z,4.50
2019-01-13T12:42:50.630Z,4.80
2019-01-13T12:45:21.499Z,5.80
2019-01-13T12:47:51.914Z,3.63
2019-01-13T12:50:22.482Z,7.07
2019-01-13T12:52:50.955Z,4.70
2019-01-13T12:55:19.470Z,3.87
2019-01-13T12:57:48.301Z,4.23
2019-01-13T13:00:18.962Z,4.30
2019-01-13T13:02:47.640Z,4.63
2019-01-13T13:05:17.485Z,3.23
2019-01-13T13:07:46.612Z,4.10
2019-01-13T13:10:33.134Z,3.40
2019-01-13T13:13:01.547Z,4.90
2019-01-13T13:15:29.993Z,2.90
2019-01-13T13:17:58.452Z,5.93
2019-01-13T13:20:27.007Z,5.13
2019-01-13T13:22:55.423Z,2.60
2019-01-13T13:25:23.854Z,2.70
2019-01-13T13:27:52.306Z,4.43
2019-01-13T13:30:28.122Z,4.13
2019-01-13T13:32:56.735Z,2.77
2019-01-13T13:35:25.301Z,3.97
2019-01-13T13:37:53.873Z,4.07
2019-01-13T13:40:26.635Z,3.83
2019-01-13T13:42:55.244Z,2.90
2019-01-13T13:45:23.863Z,3.93
2019-01-13T13:47:52.367Z,4.27
2019-01-13T13:50:23.318Z,3.57
2019-01-13T13:52:51.909Z,4.13
2019-01-13T13:55:20.460Z,3.47
2019-01-13T13:57:48.966Z,2.70
2019-01-13T14:00:20.323Z,4.30
2019-01-13T14:02:48.841Z,3.80
2019-01-13T14:05:17.360Z,3.30
2019-01-13T14:07:45.943Z,2.47
2019-01-13T14:10:20.228Z,3.40
2019-01-13T14:12:48.739Z,1.90
2019-01-13T14:15:17.258Z,2.73
2019-01-13T14:17:45.747Z,3.70
2019-01-13T14:20:16.913Z,2.73
2019-01-13T14:22:45.327Z,3.13
2019-01-13T14:25:14.412Z,4.57
2019-01-13T14:27:42.873Z,3.33
2019-01-13T14:30:35.182Z,7.77
2019-01-13T14:33:03.703Z,8.10
2019-01-13T14:35:32.162Z,6.03
2019-01-13T14:38:00.646Z,6.47
2019-01-13T14:40:29.100Z,4.60
2019-01-13T14:42:57.610Z,5.73
2019-01-13T14:45:26.308Z,5.13
2019-01-13T14:47:54.898Z,3.30
2019-01-13T14:50:29.135Z,3.30
2019-01-13T14:52:57.555Z,3.60
2019-01-13T14:55:28.880Z,4.60
2019-01-13T14:57:57.368Z,3.00
2019-01-13T15:00:29.483Z,3.50
2019-01-13T15:02:58.252Z,3.90
2019-01-13T15:05:26.747Z,3.30
2019-01-13T15:07:55.288Z,4.03
2019-01-13T15:10:24.947Z,2.27
2019-01-13T15:12:54.152Z,3.30
2019-01-13T15:15:23.149Z,2.57
2019-01-13T15:17:51.575Z,2.07
2019-01-13T15:20:21.669Z,2.87
2019-01-13T15:22:51.757Z,2.27
2019-01-13T15:25:22.801Z,3.70
2019-01-13T15:27:51.315Z,4.57
2019-01-13T15:30:22.573Z,2.90
2019-01-13T15:32:51.019Z,2.53
2019-01-13T15:35:19.460Z,4.20
2019-01-13T15:37:47.875Z,3.23
2019-01-13T15:40:20.598Z,2.50
2019-01-13T15:42:49.200Z,2.70
2019-01-13T15:45:17.890Z,2.73
2019-01-13T15:47:46.330Z,2.90
2019-01-13T15:50:20.187Z,2.00
2019-01-13T15:52:48.965Z,2.37
2019-01-13T15:55:17.574Z,1.80
2019-01-13T15:57:46.174Z,2.23
2019-01-13T16:00:22.883Z,2.37
2019-01-13T16:02:51.375Z,2.50
2019-01-13T16:05:19.823Z,2.57
2019-01-13T16:07:48.454Z,1.87
2019-01-13T16:10:19.002Z,1.47
2019-01-13T16:12:47.519Z,2.13
2019-01-13T16:15:16.073Z,2.47
2019-01-13T16:17:44.652Z,2.70
2019-01-13T16:20:24.194Z,3.50
2019-01-13T16:22:52.941Z,2.00
2019-01-13T16:25:21.362Z,2.23
2019-01-13T16:27:49.812Z,3.17
2019-01-13T16:30:21.252Z,2.30
2019-01-13T16:32:49.746Z,2.13
2019-01-13T16:35:18.472Z,2.63
2019-01-13T16:37:47.344Z,2.00
2019-01-13T16:40:18.051Z,2.17
2019-01-13T16:42:46.472Z,2.37
2019-01-13T16:45:16.388Z,2.67
2019-01-13T16:47:45.188Z,2.83
2019-01-13T16:50:15.926Z,1.57
2019-01-13T16:52:47.396Z,2.13
2019-01-13T16:55:16.034Z,1.70
2019-01-13T16:57:44.736Z,1.50
2019-01-13T17:00:18.470Z,1.83
2019-01-13T17:02:47.292Z,2.43
2019-01-13T17:05:17.718Z,2.20
2019-01-13T17:07:46.336Z,3.23
2019-01-13T17:10:19.758Z,4.47
2019-01-13T17:12:48.346Z,2.67
2019-01-13T17:15:18.797Z,4.27
2019-01-13T17:17:47.497Z,2.33
2019-01-13T17:20:18.803Z,1.60
2019-01-13T17:22:47.746Z,1.37
2019-01-13T17:25:21.481Z,1.50
2019-01-13T17:27:49.886Z,1.20
2019-01-13T17:30:23.818Z,1.23
2019-01-13T17:32:52.298Z,1.73
2019-01-13T17:35:20.792Z,1.80
2019-01-13T17:37:50.868Z,1.63
2019-01-13T17:40:21.752Z,1.17
2019-01-13T17:42:50.227Z,0.80
2019-01-13T17:45:20.702Z,0.90
2019-01-13T17:47:49.452Z,1.20
2019-01-13T17:50:19.854Z,1.10
2019-01-13T17:52:48.396Z,0.80
2019-01-13T17:55:22.130Z,1.00
2019-01-13T17:57:50.907Z,1.27
2019-01-13T18:00:31.403Z,1.47
2019-01-13T18:03:02.467Z,1.37
2019-01-13T18:05:31.318Z,1.27
2019-01-13T18:07:59.779Z,1.20
2019-01-13T18:10:28.215Z,1.60
2019-01-13T18:12:56.628Z,1.60
2019-01-13T18:15:25.142Z,1.43
2019-01-13T18:17:53.562Z,1.93
2019-01-13T18:20:22.965Z,1.53
2019-01-13T18:22:51.395Z,1.27
2019-01-13T18:25:19.827Z,1.90
2019-01-13T18:27:49.250Z,1.83
2019-01-13T18:30:23.325Z,2.67
2019-01-13T18:32:51.814Z,2.40
2019-01-13T18:35:21.645Z,1.90
2019-01-13T18:37:50.219Z,1.83
2019-01-13T18:40:23.093Z,1.97
2019-01-13T18:42:51.751Z,2.30
2019-01-13T18:45:20.286Z,2.30
2019-01-13T18:47:48.742Z,2.20
2019-01-13T18:50:19.220Z,1.20
2019-01-13T18:52:59.332Z,1.50
2019-01-13T18:55:27.783Z,3.07
2019-01-13T18:57:56.203Z,2.20
2019-01-13T19:00:25.448Z,3.30
2019-01-13T19:02:53.903Z,2.50
2019-01-13T19:05:27.406Z,2.67
2019-01-13T19:07:55.895Z,2.37
2019-01-13T19:10:39.249Z,3.40
2019-01-13T19:13:16.338Z,2.03
2019-01-13T19:15:47.297Z,2.10
2019-01-13T19:18:15.715Z,2.80
2019-01-13T19:20:44.178Z,2.23
2019-01-13T19:23:12.700Z,2.47
2019-01-13T19:25:41.227Z,2.77
2019-01-13T19:28:09.674Z,1.77
2019-01-13T19:30:38.096Z,3.47
2019-01-13T19:33:06.547Z,2.47
2019-01-13T19:35:35.031Z,2.47
2019-01-13T19:38:03.511Z,2.57
2019-01-13T19:40:31.985Z,3.03
2019-01-13T19:43:00.440Z,2.03
2019-01-13T19:45:28.859Z,2.50
2019-01-13T19:47:57.283Z,3.40
2019-01-13T19:50:25.899Z,2.53
2019-01-13T19:52:54.573Z,2.53
2019-01-13T19:55:23.003Z,2.40
2019-01-13T19:57:51.420Z,3.60
2019-01-13T20:00:30.311Z,2.17
2019-01-13T20:02:59.297Z,1.83
2019-01-13T20:05:27.828Z,3.77
2019-01-13T20:07:56.901Z,2.90
2019-01-13T20:10:25.519Z,2.70
2019-01-13T20:12:53.974Z,2.97
2019-01-13T20:15:22.755Z,1.87
2019-01-13T20:17:51.353Z,2.60
2019-01-13T20:20:21.066Z,3.37
2019-01-13T20:22:49.818Z,1.93
2019-01-13T20:25:19.102Z,2.73
2019-01-13T20:27:48.245Z,2.13
2019-01-13T20:30:19.592Z,2.57
2019-01-13T20:32:49.437Z,2.70
2019-01-13T20:35:19.239Z,3.93
2019-01-13T20:37:48.133Z,3.60
2019-01-13T20:40:18.812Z,2.90
2019-01-13T20:42:47.412Z,1.73
2019-01-13T20:45:27.952Z,4.03
2019-01-13T20:47:56.391Z,2.77
2019-01-13T20:50:24.948Z,3.50
2019-01-13T20:52:53.896Z,2.63
2019-01-13T20:55:23.508Z,2.70
2019-01-13T20:57:52.521Z,2.00
2019-01-13T21:00:28.674Z,3.60
2019-01-13T21:02:57.118Z,3.23
2019-01-13T21:05:26.864Z,3.30
2019-01-13T21:07:55.824Z,2.53
2019-01-13T21:10:24.607Z,2.40
2019-01-13T21:12:53.209Z,3.33
2019-01-13T21:15:27.473Z,3.23
2019-01-13T21:17:57.951Z,4.37
2019-01-13T21:20:26.632Z,2.80
2019-01-13T21:22:55.778Z,2.20
2019-01-13T21:25:24.230Z,2.87
2019-01-13T21:27:53.795Z,3.07
2019-01-13T21:30:30.665Z,2.57
2019-01-13T21:32:59.147Z,1.97
2019-01-13T21:35:33.881Z,3.10
2019-01-13T21:37:58.071Z,2.50
2019-01-13T21:40:27.023Z,2.20
2019-01-13T21:42:55.471Z,3.17
2019-01-13T21:45:24.629Z,3.00
2019-01-13T21:47:53.066Z,4.60
2019-01-13T21:50:24.207Z,2.97
2019-01-13T21:52:52.809Z,2.33
2019-01-13T21:55:21.322Z,1.57
2019-01-13T21:57:49.780Z,1.57
2019-01-13T22:00:24.011Z,1.50
2019-01-13T22:02:52.567Z,1.20
2019-01-13T22:05:21.043Z,1.10
2019-01-13T22:07:49.655Z,1.10
2019-01-13T22:10:19.846Z,1.60
2019-01-13T22:12:48.344Z,2.67
2019-01-13T22:15:18.591Z,4.63
2019-01-13T22:17:47.323Z,2.10
2019-01-13T22:20:21.698Z,2.10
2019-01-13T22:22:50.449Z,1.60
2019-01-13T22:25:18.930Z,1.53
2019-01-13T22:27:47.368Z,2.03
2019-01-13T22:30:17.658Z,2.10
2019-01-13T22:32:46.103Z,1.90
2019-01-13T22:35:14.623Z,2.20
2019-01-13T22:37:43.104Z,2.20
2019-01-13T22:40:16.433Z,2.63
2019-01-13T22:42:45.039Z,2.70
2019-01-13T22:45:18.274Z,1.00
2019-01-13T22:47:46.763Z,2.30
2019-01-13T22:50:16.669Z,1.90
2019-01-13T22:52:45.213Z,2.80
2019-01-13T22:55:13.698Z,0.97
2019-01-13T22:57:42.215Z,1.23
2019-01-13T23:00:27.040Z,1.70
2019-01-13T23:02:55.489Z,1.20
2019-01-13T23:05:23.911Z,0.97
2019-01-13T23:07:52.334Z,1.60
2019-01-13T23:10:20.764Z,1.40
2019-01-13T23:12:49.176Z,1.30
2019-01-13T23:15:17.615Z,0.97
2019-01-13T23:17:46.061Z,1.60
2019-01-13T23:20:14.559Z,1.63
2019-01-13T23:22:42.994Z,1.17
2019-01-13T23:25:11.408Z,0.90
2019-01-13T23:27:39.923Z,1.23
2019-01-13T23:30:09.609Z,1.43
2019-01-13T23:32:38.031Z,1.33
2019-01-13T23:35:06.816Z,1.30
2019-01-13T23:37:35.237Z,1.50
2019-01-13T23:40:05.030Z,2.03
2019-01-13T23:42:33.534Z,1.37
2019-01-13T23:45:01.954Z,0.60
2019-01-13T23:47:30.408Z,1.07
2019-01-13T23:49:58.894Z,1.10
2019-01-13T23:52:27.323Z,1.50
2019-01-13T23:54:55.862Z,0.80
2019-01-13T23:57:24.275Z,2.47
2019-01-13T23:59:52.711Z,2.27
